createdAt,value
2017-05-21T00:00:55.983Z,0
2017-05-21T00:01:56.015Z,0
2017-05-21T00:02:55.991Z,0
2017-05-21T00:03:56.017Z,0
2017-05-21T00:04:55.989Z,0
2017-05-21T00:05:55.995Z,0
2017-05-21T00:06:55.985Z,0
2017-05-21T00:07:55.998Z,0
2017-05-21T00:08:55.962Z,0
2017-05-21T00:09:55.990Z,0
2017-05-21T00:10:55.993Z,0
2017-05-21T00:11:55.996Z,0
2017-05-21T00:12:55.994Z,0
2017-05-21T00:13:55.987Z,0
2017-05-21T00:14:56.002Z,0
2017-05-21T00:15:56.025Z,0
2017-05-21T00:16:56.003Z,0
2017-05-21T00:17:55.996Z,0
2017-05-21T00:18:56.004Z,0
2017-05-21T00:19:56.040Z,0
2017-05-21T00:20:55.965Z,0
2017-05-21T00:21:56.003Z,0
2017-05-21T00:22:55.987Z,0
2017-05-21T00:23:55.990Z,0
2017-05-21T00:24:55.993Z,0
2017-05-21T00:25:56.007Z,0
2017-05-21T00:26:56.007Z,0
2017-05-21T00:27:56.004Z,0
2017-05-21T00:28:56.025Z,0
2017-05-21T00:29:56.050Z,0
2017-05-21T00:30:56.001Z,0
2017-05-21T00:31:56.002Z,0
2017-05-21T00:32:56.013Z,0
2017-05-21T00:33:56.004Z,0
2017-05-21T00:34:56.034Z,0
2017-05-21T00:35:56.009Z,0
2017-05-21T00:36:56.115Z,0
2017-05-21T00:37:55.982Z,0
2017-05-21T00:38:56.014Z,0
2017-05-21T00:39:56.011Z,0
2017-05-21T00:40:56.035Z,0
2017-05-21T00:41:56.006Z,0
2017-05-21T00:42:55.979Z,0
2017-05-21T00:43:56.018Z,0
2017-05-21T00:44:56.018Z,0
2017-05-21T00:45:56.038Z,0
2017-05-21T00:46:56.016Z,0
2017-05-21T00:47:55.986Z,0
2017-05-21T00:48:55.988Z,0
2017-05-21T00:49:56.009Z,0
2017-05-21T00:50:56.002Z,0
2017-05-21T00:51:56.020Z,0
2017-05-21T00:52:56.025Z,0
2017-05-21T00:53:56.022Z,0
2017-05-21T00:54:56.018Z,0
2017-05-21T00:55:56.014Z,0
2017-05-21T00:56:56.015Z,0
2017-05-21T00:57:56.012Z,0
2017-05-21T00:58:56.022Z,0
2017-05-21T00:59:56.022Z,0
2017-05-21T01:00:56.017Z,0
2017-05-21T01:01:55.990Z,0
2017-05-21T01:02:56.025Z,0
2017-05-21T01:03:56.022Z,0
2017-05-21T01:04:56.024Z,0
2017-05-21T01:05:56.029Z,0
2017-05-21T01:06:56.018Z,0
2017-05-21T01:07:56.022Z,0
2017-05-21T01:08:55.993Z,0
2017-05-21T01:09:56.021Z,0
2017-05-21T01:10:56.070Z,0
2017-05-21T01:11:56.034Z,0
2017-05-21T01:12:56.027Z,0
2017-05-21T01:13:56.033Z,0
2017-05-21T01:14:56.006Z,0
2017-05-21T01:15:56.018Z,0
2017-05-21T01:16:56.032Z,0
2017-05-21T01:17:56.046Z,0
2017-05-21T01:18:56.026Z,0
2017-05-21T01:19:56.035Z,0
2017-05-21T01:20:56.022Z,0
2017-05-21T01:21:56.029Z,0
2017-05-21T01:22:56.038Z,0
2017-05-21T01:23:56.045Z,0
2017-05-21T01:24:56.027Z,0
2017-05-21T01:25:56.037Z,0
2017-05-21T01:26:56.030Z,0
2017-05-21T01:27:56.005Z,0
2017-05-21T01:28:56.038Z,0
2017-05-21T01:29:56.043Z,0
2017-05-21T01:30:56.005Z,0
2017-05-21T01:31:56.040Z,0
2017-05-21T01:32:56.039Z,0
2017-05-21T01:33:56.039Z,0
2017-05-21T01:34:56.048Z,0
2017-05-21T01:35:56.030Z,0
2017-05-21T01:36:56.041Z,0
2017-05-21T01:37:56.009Z,0
2017-05-21T01:38:56.010Z,0
2017-05-21T01:39:56.049Z,0
2017-05-21T01:40:56.049Z,0
2017-05-21T01:41:56.045Z,0
2017-05-21T01:42:56.032Z,0
2017-05-21T01:43:56.016Z,0
2017-05-21T01:44:56.032Z,0
2017-05-21T01:45:56.042Z,0
2017-05-21T01:46:56.064Z,0
2017-05-21T01:47:56.051Z,0
2017-05-21T01:48:56.054Z,0
2017-05-21T01:49:56.033Z,0
2017-05-21T01:50:56.040Z,0
2017-05-21T01:51:56.047Z,0
2017-05-21T01:52:56.048Z,0
2017-05-21T01:53:56.052Z,0
2017-05-21T01:54:56.156Z,0
2017-05-21T01:55:56.019Z,0
2017-05-21T01:56:56.047Z,0
2017-05-21T01:57:56.161Z,0
2017-05-21T01:58:56.056Z,0
2017-05-21T01:59:56.053Z,0
2017-05-21T02:00:56.054Z,0
2017-05-21T02:01:56.057Z,0
2017-05-21T02:02:56.055Z,0
2017-05-21T02:03:56.051Z,0
2017-05-21T02:04:56.059Z,0
2017-05-21T02:05:56.040Z,0
2017-05-21T02:06:56.056Z,0
2017-05-21T02:07:56.056Z,0
2017-05-21T02:08:56.060Z,0
2017-05-21T02:09:56.058Z,0
2017-05-21T02:10:56.056Z,0
2017-05-21T02:11:56.062Z,0
2017-05-21T02:12:56.059Z,0
2017-05-21T02:13:56.061Z,0
2017-05-21T02:14:56.031Z,0
2017-05-21T02:15:56.064Z,0
2017-05-21T02:16:56.031Z,0
2017-05-21T02:17:56.066Z,0
2017-05-21T02:18:56.090Z,0
2017-05-21T02:19:56.086Z,0
2017-05-21T02:20:56.033Z,0
2017-05-21T02:21:56.086Z,0
2017-05-21T02:22:56.034Z,0
2017-05-21T02:23:56.089Z,0
2017-05-21T02:24:56.057Z,0
2017-05-21T02:25:56.065Z,0
2017-05-21T02:26:56.064Z,0
2017-05-21T02:27:56.037Z,0
2017-05-21T02:28:56.092Z,0
2017-05-21T02:29:56.052Z,0
2017-05-21T02:30:56.065Z,0
2017-05-21T02:31:56.069Z,0
2017-05-21T02:32:56.076Z,4
2017-05-21T02:33:56.062Z,4
2017-05-21T02:34:56.061Z,4
2017-05-21T02:35:56.072Z,0
2017-05-21T02:36:56.078Z,4
2017-05-21T02:37:56.064Z,4
2017-05-21T02:38:56.128Z,4
2017-05-21T02:39:56.071Z,4
2017-05-21T02:40:56.068Z,4
2017-05-21T02:41:56.097Z,8
2017-05-21T02:42:56.062Z,8
2017-05-21T02:43:56.080Z,8
2017-05-21T02:44:56.077Z,8
2017-05-21T02:45:56.073Z,8
2017-05-21T02:46:56.082Z,16
2017-05-21T02:47:56.080Z,16
2017-05-21T02:48:56.075Z,20
2017-05-21T02:49:56.073Z,20
2017-05-21T02:50:56.074Z,24
2017-05-21T02:51:56.081Z,24
2017-05-21T02:52:56.083Z,28
2017-05-21T02:53:56.083Z,32
2017-05-21T02:54:56.123Z,40
2017-05-21T02:55:56.074Z,44
2017-05-21T02:56:56.074Z,52
2017-05-21T02:57:56.078Z,60
2017-05-21T02:58:56.077Z,72
2017-05-21T02:59:56.083Z,80
2017-05-21T03:00:56.073Z,88
2017-05-21T03:01:56.077Z,100
2017-05-21T03:02:56.082Z,116
2017-05-21T03:03:56.129Z,128
2017-05-21T03:04:56.108Z,148
2017-05-21T03:05:56.054Z,168
2017-05-21T03:06:56.058Z,184
2017-05-21T03:07:56.093Z,208
2017-05-21T03:08:56.089Z,232
2017-05-21T03:09:56.128Z,256
2017-05-21T03:10:56.093Z,284
2017-05-21T03:11:56.061Z,316
2017-05-21T03:12:56.051Z,348
2017-05-21T03:13:56.081Z,384
2017-05-21T03:14:56.136Z,424
2017-05-21T03:15:56.087Z,456
2017-05-21T03:16:56.092Z,496
2017-05-21T03:17:56.078Z,540
2017-05-21T03:18:56.094Z,588
2017-05-21T03:19:56.093Z,636
2017-05-21T03:20:56.079Z,688
2017-05-21T03:21:56.137Z,740
2017-05-21T03:22:56.084Z,784
2017-05-21T03:23:56.140Z,844
2017-05-21T03:24:56.099Z,892
2017-05-21T03:25:56.090Z,960
2017-05-21T03:26:56.061Z,1020
2017-05-21T03:27:56.101Z,1088
2017-05-21T03:28:56.104Z,1156
2017-05-21T03:29:56.123Z,1232
2017-05-21T03:30:56.124Z,1304
2017-05-21T03:31:56.104Z,1376
2017-05-21T03:32:56.094Z,1460
2017-05-21T03:33:56.070Z,1528
2017-05-21T03:34:56.066Z,1596
2017-05-21T03:35:56.107Z,1664
2017-05-21T03:36:56.104Z,1752
2017-05-21T03:37:56.155Z,1864
2017-05-21T03:38:56.120Z,1940
2017-05-21T03:39:56.069Z,2004
2017-05-21T03:40:56.082Z,2084
2017-05-21T03:41:56.111Z,2176
2017-05-21T03:42:56.099Z,2236
2017-05-21T03:43:56.109Z,2356
2017-05-21T03:44:56.075Z,2416
2017-05-21T03:45:56.211Z,2508
2017-05-21T03:46:56.099Z,2616
2017-05-21T03:47:56.067Z,2720
2017-05-21T03:48:56.102Z,2800
2017-05-21T03:49:56.109Z,2892
2017-05-21T03:50:56.114Z,2956
2017-05-21T03:51:56.074Z,3016
2017-05-21T03:52:56.105Z,3100
2017-05-21T03:53:56.079Z,3184
2017-05-21T03:54:56.174Z,3228
2017-05-21T03:55:56.113Z,3324
2017-05-21T03:56:56.088Z,3472
2017-05-21T03:57:56.115Z,3772
2017-05-21T03:58:56.121Z,3940
2017-05-21T03:59:56.112Z,3940
2017-05-21T04:00:56.109Z,4204
2017-05-21T04:01:56.138Z,4492
2017-05-21T04:02:56.110Z,4720
2017-05-21T04:03:56.170Z,4996
2017-05-21T04:04:56.113Z,5068
2017-05-21T04:05:56.095Z,5212
2017-05-21T04:06:56.135Z,5564
2017-05-21T04:07:56.119Z,5644
2017-05-21T04:08:56.109Z,5784
2017-05-21T04:09:56.124Z,6024
2017-05-21T04:10:56.119Z,6012
2017-05-21T04:11:56.082Z,6236
2017-05-21T04:12:56.128Z,6352
2017-05-21T04:13:56.124Z,6624
2017-05-21T04:14:56.124Z,6764
2017-05-21T04:15:56.085Z,6824
2017-05-21T04:16:56.114Z,6972
2017-05-21T04:17:56.115Z,6708
2017-05-21T04:18:56.123Z,7064
2017-05-21T04:19:56.109Z,7300
2017-05-21T04:20:56.125Z,7100
2017-05-21T04:21:56.114Z,6936
2017-05-21T04:22:56.128Z,6292
2017-05-21T04:23:56.129Z,6852
2017-05-21T04:24:56.128Z,7292
2017-05-21T04:25:56.117Z,7304
2017-05-21T04:26:56.121Z,7652
2017-05-21T04:27:56.109Z,7652
2017-05-21T04:28:56.108Z,7260
2017-05-21T04:29:56.149Z,7716
2017-05-21T04:30:56.143Z,8160
2017-05-21T04:31:56.109Z,8944
2017-05-21T04:32:56.132Z,8868
2017-05-21T04:33:56.123Z,9292
2017-05-21T04:34:56.123Z,9796
2017-05-21T04:35:56.094Z,11100
2017-05-21T04:36:56.242Z,12648
2017-05-21T04:37:56.132Z,12348
2017-05-21T04:38:56.098Z,11956
2017-05-21T04:39:56.112Z,12092
2017-05-21T04:40:56.157Z,11956
2017-05-21T04:41:56.128Z,12192
2017-05-21T04:42:56.154Z,12120
2017-05-21T04:43:56.098Z,10988
2017-05-21T04:44:56.158Z,10424
2017-05-21T04:45:56.127Z,11012
2017-05-21T04:46:56.098Z,11880
2017-05-21T04:47:56.133Z,11392
2017-05-21T04:48:56.141Z,11480
2017-05-21T04:49:56.140Z,12152
2017-05-21T04:50:56.161Z,11612
2017-05-21T04:51:56.165Z,11828
2017-05-21T04:52:56.135Z,11376
2017-05-21T04:53:56.124Z,11472
2017-05-21T04:54:56.165Z,11744
2017-05-21T04:55:56.138Z,11996
2017-05-21T04:56:56.157Z,12616
2017-05-21T04:57:56.166Z,12828
2017-05-21T04:58:56.145Z,13940
2017-05-21T04:59:56.141Z,15648
2017-05-21T05:00:56.145Z,15448
2017-05-21T05:01:56.253Z,15288
2017-05-21T05:02:56.150Z,14888
2017-05-21T05:03:56.112Z,14612
2017-05-21T05:04:56.162Z,13476
2017-05-21T05:05:56.146Z,13420
2017-05-21T05:06:56.152Z,11044
2017-05-21T05:07:56.141Z,13396
2017-05-21T05:08:56.167Z,15104
2017-05-21T05:09:56.170Z,17368
2017-05-21T05:10:56.151Z,18552
2017-05-21T05:11:56.142Z,20864
2017-05-21T05:12:56.150Z,20864
2017-05-21T05:13:56.130Z,21920
2017-05-21T05:14:56.152Z,17116
2017-05-21T05:15:56.156Z,24256
2017-05-21T05:16:56.153Z,25056
2017-05-21T05:17:56.159Z,25856
2017-05-21T05:18:56.118Z,25504
2017-05-21T05:19:56.157Z,24512
2017-05-21T05:20:56.134Z,24352
2017-05-21T05:21:56.156Z,23328
2017-05-21T05:22:56.147Z,22912
2017-05-21T05:23:56.158Z,22816
2017-05-21T05:24:56.157Z,22400
2017-05-21T05:25:56.157Z,22784
2017-05-21T05:26:56.155Z,21408
2017-05-21T05:27:56.157Z,20224
2017-05-21T05:28:56.160Z,21664
2017-05-21T05:29:56.152Z,22528
2017-05-21T05:30:56.313Z,22944
2017-05-21T05:31:56.164Z,22400
2017-05-21T05:32:56.162Z,23712
2017-05-21T05:33:56.157Z,23168
2017-05-21T05:34:56.149Z,23040
2017-05-21T05:35:56.161Z,22240
2017-05-21T05:36:56.157Z,22240
2017-05-21T05:37:56.184Z,21536
2017-05-21T05:38:56.145Z,19128
2017-05-21T05:39:56.170Z,18936
2017-05-21T05:40:56.275Z,24544
2017-05-21T05:41:56.183Z,33696
2017-05-21T05:42:56.174Z,27360
2017-05-21T05:43:56.184Z,34464
2017-05-21T05:44:56.170Z,34432
2017-05-21T05:45:56.175Z,34624
2017-05-21T05:46:56.165Z,35712
2017-05-21T05:47:56.171Z,36384
2017-05-21T05:48:56.172Z,39072
2017-05-21T05:49:56.149Z,38112
2017-05-21T05:50:56.173Z,34048
2017-05-21T05:51:56.155Z,35840
2017-05-21T05:52:56.179Z,37824
2017-05-21T05:53:56.154Z,36288
2017-05-21T05:54:56.179Z,35584
2017-05-21T05:55:56.178Z,34144
2017-05-21T05:56:56.165Z,33984
2017-05-21T05:57:56.185Z,37280
2017-05-21T05:58:56.177Z,37344
2017-05-21T05:59:56.177Z,35616
2017-05-21T06:00:56.174Z,33536
2017-05-21T06:01:56.179Z,33280
2017-05-21T06:02:56.182Z,43168
2017-05-21T06:03:56.168Z,41408
2017-05-21T06:04:56.181Z,41600
2017-05-21T06:05:56.180Z,43808
2017-05-21T06:06:56.180Z,47872
2017-05-21T06:07:56.198Z,52512
2017-05-21T06:08:56.201Z,54976
2017-05-21T06:09:56.182Z,55616
2017-05-21T06:10:56.183Z,54496
2017-05-21T06:11:56.183Z,52416
2017-05-21T06:12:56.180Z,50240
2017-05-21T06:13:56.180Z,48704
2017-05-21T06:14:56.190Z,49344
2017-05-21T06:15:56.182Z,51808
2017-05-21T06:16:56.181Z,55456
2017-05-21T06:17:56.174Z,58592
2017-05-21T06:18:56.181Z,60064
2017-05-21T06:19:56.144Z,58816
2017-05-21T06:20:56.146Z,56128
2017-05-21T06:21:56.181Z,54400
2017-05-21T06:22:56.192Z,53376
2017-05-21T06:23:56.191Z,53952
2017-05-21T06:24:56.185Z,55360
2017-05-21T06:25:56.194Z,57472
2017-05-21T06:26:56.190Z,59456
2017-05-21T06:27:56.208Z,60544
2017-05-21T06:28:56.191Z,60992
2017-05-21T06:29:56.187Z,60672
2017-05-21T06:30:56.152Z,60352
2017-05-21T06:31:56.182Z,59840
2017-05-21T06:32:56.247Z,59200
2017-05-21T06:33:56.172Z,58368
2017-05-21T06:34:56.193Z,58272
2017-05-21T06:35:56.176Z,58752
2017-05-21T06:36:56.218Z,59200
2017-05-21T06:37:56.190Z,59232
2017-05-21T06:38:56.196Z,59872
2017-05-21T06:39:56.216Z,61664
2017-05-21T06:40:56.202Z,63680
2017-05-21T06:41:56.219Z,65472
2017-05-21T06:42:56.199Z,66944
2017-05-21T06:43:56.206Z,68288
2017-05-21T06:44:56.181Z,68832
2017-05-21T06:45:56.160Z,68640
2017-05-21T06:46:56.197Z,68032
2017-05-21T06:47:56.161Z,66848
2017-05-21T06:48:56.228Z,65888
2017-05-21T06:49:56.180Z,65568
2017-05-21T06:50:56.160Z,66688
2017-05-21T06:51:56.185Z,68608
2017-05-21T06:52:56.205Z,70400
2017-05-21T06:53:56.167Z,71520
2017-05-21T06:54:56.313Z,71648
2017-05-21T06:55:56.206Z,70880
2017-05-21T06:56:56.165Z,69536
2017-05-21T06:57:56.203Z,69088
2017-05-21T06:58:56.169Z,69664
2017-05-21T06:59:56.208Z,70592
2017-05-21T07:00:56.215Z,71648
2017-05-21T07:01:56.234Z,72576
2017-05-21T07:02:56.201Z,73312
2017-05-21T07:03:56.231Z,74688
2017-05-21T07:04:56.317Z,75552
2017-05-21T07:05:56.203Z,76320
2017-05-21T07:06:56.210Z,76960
2017-05-21T07:07:56.233Z,77856
2017-05-21T07:08:56.210Z,78432
2017-05-21T07:09:56.208Z,79200
2017-05-21T07:10:56.205Z,79776
2017-05-21T07:11:56.211Z,79552
2017-05-21T07:12:56.207Z,78304
2017-05-21T07:13:56.210Z,77248
2017-05-21T07:14:56.208Z,76960
2017-05-21T07:15:56.216Z,77824
2017-05-21T07:16:56.218Z,79968
2017-05-21T07:17:56.216Z,82976
2017-05-21T07:18:56.209Z,85792
2017-05-21T07:19:56.240Z,87264
2017-05-21T07:20:56.224Z,86912
2017-05-21T07:21:56.209Z,85024
2017-05-21T07:22:56.200Z,82272
2017-05-21T07:23:56.215Z,80096
2017-05-21T07:24:56.328Z,78784
2017-05-21T07:25:56.220Z,78784
2017-05-21T07:26:56.219Z,79584
2017-05-21T07:27:56.199Z,82304
2017-05-21T07:28:56.229Z,84672
2017-05-21T07:29:56.185Z,88288
2017-05-21T07:30:56.217Z,90592
2017-05-21T07:31:56.216Z,91680
2017-05-21T07:32:56.216Z,91520
2017-05-21T07:33:56.225Z,89664
2017-05-21T07:34:56.192Z,86944
2017-05-21T07:35:56.246Z,84320
2017-05-21T07:36:56.188Z,82528
2017-05-21T07:37:56.184Z,81536
2017-05-21T07:38:56.226Z,81568
2017-05-21T07:39:56.236Z,83200
2017-05-21T07:40:56.230Z,86592
2017-05-21T07:41:56.219Z,90816
2017-05-21T07:42:56.224Z,93984
2017-05-21T07:43:56.197Z,96064
2017-05-21T07:44:56.232Z,96672
2017-05-21T07:45:56.253Z,94304
2017-05-21T07:46:56.250Z,90880
2017-05-21T07:47:56.225Z,87616
2017-05-21T07:48:56.235Z,84960
2017-05-21T07:49:56.342Z,82944
2017-05-21T07:50:56.236Z,83840
2017-05-21T07:51:56.193Z,86528
2017-05-21T07:52:56.237Z,89856
2017-05-21T07:53:56.229Z,93472
2017-05-21T07:54:56.198Z,95872
2017-05-21T07:55:56.237Z,97472
2017-05-21T07:56:56.213Z,97056
2017-05-21T07:57:56.200Z,94784
2017-05-21T07:58:56.217Z,93696
2017-05-21T07:59:56.261Z,93056
2017-05-21T08:00:56.198Z,91712
2017-05-21T08:01:56.245Z,91776
2017-05-21T08:02:56.202Z,93152
2017-05-21T08:03:56.198Z,95264
2017-05-21T08:04:56.234Z,98336
2017-05-21T08:05:56.218Z,101088
2017-05-21T08:06:56.244Z,102048
2017-05-21T08:07:56.241Z,100864
2017-05-21T08:08:56.259Z,98080
2017-05-21T08:09:56.233Z,95872
2017-05-21T08:10:56.244Z,94368
2017-05-21T08:11:56.262Z,94688
2017-05-21T08:12:56.242Z,96672
2017-05-21T08:13:56.236Z,99968
2017-05-21T08:14:56.236Z,103936
2017-05-21T08:15:56.265Z,107424
2017-05-21T08:16:56.246Z,109056
2017-05-21T08:17:56.247Z,107360
2017-05-21T08:18:56.247Z,104352
2017-05-21T08:19:56.242Z,101088
2017-05-21T08:20:56.249Z,99392
2017-05-21T08:21:56.245Z,99552
2017-05-21T08:22:56.250Z,101600
2017-05-21T08:23:56.248Z,104064
2017-05-21T08:24:56.242Z,106976
2017-05-21T08:25:56.273Z,108416
2017-05-21T08:26:56.219Z,109056
2017-05-21T08:27:56.274Z,108992
2017-05-21T08:28:56.243Z,108128
2017-05-21T08:29:56.277Z,107072
2017-05-21T08:30:56.245Z,106976
2017-05-21T08:31:56.210Z,108064
2017-05-21T08:32:56.252Z,110112
2017-05-21T08:33:56.230Z,113312
2017-05-21T08:34:56.279Z,116096
2017-05-21T08:35:56.258Z,117312
2017-05-21T08:36:56.250Z,117248
2017-05-21T08:37:56.247Z,114944
2017-05-21T08:38:56.257Z,113824
2017-05-21T08:39:56.257Z,114080
2017-05-21T08:40:56.250Z,115072
2017-05-21T08:41:56.260Z,115136
2017-05-21T08:42:56.217Z,114464
2017-05-21T08:43:56.235Z,114016
2017-05-21T08:44:56.282Z,112064
2017-05-21T08:45:56.262Z,111680
2017-05-21T08:46:56.264Z,114464
2017-05-21T08:47:56.229Z,117184
2017-05-21T08:48:56.266Z,120128
2017-05-21T08:49:56.282Z,121344
2017-05-21T08:50:56.266Z,120800
2017-05-21T08:51:56.263Z,119904
2017-05-21T08:52:56.283Z,117536
2017-05-21T08:53:56.241Z,115584
2017-05-21T08:54:56.224Z,114528
2017-05-21T08:55:56.260Z,115680
2017-05-21T08:56:56.259Z,118720
2017-05-21T08:57:56.267Z,121600
2017-05-21T08:58:56.289Z,123392
2017-05-21T08:59:56.251Z,123776
2017-05-21T09:00:56.247Z,123392
2017-05-21T09:01:56.263Z,121120
2017-05-21T09:02:56.292Z,118656
2017-05-21T09:03:56.273Z,118240
2017-05-21T09:04:56.276Z,118368
2017-05-21T09:05:56.275Z,119232
2017-05-21T09:06:56.251Z,119552
2017-05-21T09:07:56.251Z,119488
2017-05-21T09:08:56.263Z,119936
2017-05-21T09:09:56.263Z,119968
2017-05-21T09:10:56.269Z,119136
2017-05-21T09:11:56.274Z,118560
2017-05-21T09:12:56.276Z,118944
2017-05-21T09:13:56.272Z,121280
2017-05-21T09:14:56.327Z,121952
2017-05-21T09:15:56.266Z,122464
2017-05-21T09:16:56.271Z,123616
2017-05-21T09:17:56.277Z,123328
2017-05-21T09:18:56.270Z,122176
2017-05-21T09:19:56.279Z,122272
2017-05-21T09:20:56.278Z,119936
2017-05-21T09:21:56.270Z,120096
2017-05-21T09:22:56.275Z,121344
2017-05-21T09:23:56.258Z,124192
2017-05-21T09:24:56.273Z,131072
2017-05-21T09:25:56.259Z,136928
2017-05-21T09:26:56.287Z,140224
2017-05-21T09:27:56.241Z,100000
2017-05-21T09:28:56.286Z,104448
2017-05-21T09:29:56.276Z,57024
2017-05-21T09:30:56.284Z,46464
2017-05-21T09:31:56.304Z,70560
2017-05-21T09:32:56.283Z,140480
2017-05-21T09:33:56.276Z,143904
2017-05-21T09:34:56.307Z,61792
2017-05-21T09:35:56.289Z,60576
2017-05-21T09:36:56.292Z,53792
2017-05-21T09:37:56.282Z,51744
2017-05-21T09:38:56.308Z,61280
2017-05-21T09:39:56.310Z,76160
2017-05-21T09:40:56.279Z,77152
2017-05-21T09:41:56.312Z,52544
2017-05-21T09:42:56.297Z,49088
2017-05-21T09:43:56.251Z,49888
2017-05-21T09:44:56.273Z,54624
2017-05-21T09:45:56.295Z,83808
2017-05-21T09:46:56.268Z,160288
2017-05-21T09:47:56.316Z,82944
2017-05-21T09:48:56.295Z,50816
2017-05-21T09:49:56.319Z,46432
2017-05-21T09:50:56.315Z,47456
2017-05-21T09:51:56.316Z,54848
2017-05-21T09:52:56.298Z,68320
2017-05-21T09:53:56.289Z,58720
2017-05-21T09:54:56.272Z,63776
2017-05-21T09:55:56.296Z,58944
2017-05-21T09:56:56.289Z,69280
2017-05-21T09:57:56.286Z,63680
2017-05-21T09:58:56.289Z,86912
2017-05-21T09:59:56.301Z,136256
2017-05-21T10:00:56.257Z,141824
2017-05-21T10:01:56.313Z,141504
2017-05-21T10:02:56.321Z,139904
2017-05-21T10:03:56.282Z,137856
2017-05-21T10:04:56.305Z,133856
2017-05-21T10:05:56.324Z,130432
2017-05-21T10:06:56.301Z,128960
2017-05-21T10:07:56.300Z,130240
2017-05-21T10:08:56.278Z,133952
2017-05-21T10:09:56.305Z,134272
2017-05-21T10:10:56.300Z,134784
2017-05-21T10:11:56.315Z,133984
2017-05-21T10:12:56.323Z,131392
2017-05-21T10:13:56.309Z,131488
2017-05-21T10:14:56.307Z,131456
2017-05-21T10:15:56.310Z,134368
2017-05-21T10:16:56.261Z,137088
2017-05-21T10:17:56.309Z,137632
2017-05-21T10:18:56.302Z,135808
2017-05-21T10:19:56.309Z,133088
2017-05-21T10:20:56.305Z,130656
2017-05-21T10:21:56.333Z,129504
2017-05-21T10:22:56.310Z,131616
2017-05-21T10:23:56.272Z,135520
2017-05-21T10:24:56.274Z,141184
2017-05-21T10:25:56.269Z,146048
2017-05-21T10:26:56.421Z,146720
2017-05-21T10:27:56.312Z,143168
2017-05-21T10:28:56.314Z,139200
2017-05-21T10:29:56.317Z,136576
2017-05-21T10:30:56.307Z,136160
2017-05-21T10:31:56.324Z,137568
2017-05-21T10:32:56.325Z,141152
2017-05-21T10:33:56.317Z,145952
2017-05-21T10:34:56.311Z,148960
2017-05-21T10:35:56.319Z,148768
2017-05-21T10:36:56.312Z,145568
2017-05-21T10:37:56.323Z,142816
2017-05-21T10:38:56.314Z,140992
2017-05-21T10:39:56.321Z,141888
2017-05-21T10:40:56.330Z,143936
2017-05-21T10:41:56.342Z,146016
2017-05-21T10:42:56.322Z,148544
2017-05-21T10:43:56.319Z,147904
2017-05-21T10:44:56.316Z,145312
2017-05-21T10:45:56.314Z,142432
2017-05-21T10:46:56.346Z,139424
2017-05-21T10:47:56.318Z,138752
2017-05-21T10:48:56.284Z,139968
2017-05-21T10:49:56.283Z,143808
2017-05-21T10:50:56.324Z,146400
2017-05-21T10:51:56.324Z,148800
2017-05-21T10:52:56.326Z,149728
2017-05-21T10:53:56.306Z,151136
2017-05-21T10:54:56.330Z,150848
2017-05-21T10:55:56.326Z,149568
2017-05-21T10:56:56.323Z,147424
2017-05-21T10:57:56.330Z,144192
2017-05-21T10:58:56.285Z,142944
2017-05-21T10:59:56.324Z,143264
2017-05-21T11:00:56.306Z,145312
2017-05-21T11:01:56.352Z,148000
2017-05-21T11:02:56.332Z,149376
2017-05-21T11:03:56.307Z,151200
2017-05-21T11:04:56.325Z,153152
2017-05-21T11:05:56.326Z,155360
2017-05-21T11:06:56.300Z,155232
2017-05-21T11:07:56.338Z,153376
2017-05-21T11:08:56.327Z,151296
2017-05-21T11:09:56.339Z,151712
2017-05-21T11:10:56.326Z,138592
2017-05-21T11:11:56.360Z,130368
2017-05-21T11:12:56.338Z,152992
2017-05-21T11:13:56.339Z,40448
2017-05-21T11:14:56.329Z,55936
2017-05-21T11:15:56.345Z,162656
2017-05-21T11:16:56.302Z,166048
2017-05-21T11:17:56.361Z,135264
2017-05-21T11:18:56.346Z,93760
2017-05-21T11:19:56.334Z,34304
2017-05-21T11:20:56.339Z,34688
2017-05-21T11:21:56.331Z,35104
2017-05-21T11:22:56.335Z,36544
2017-05-21T11:23:56.364Z,32448
2017-05-21T11:24:56.337Z,33632
2017-05-21T11:25:56.366Z,34432
2017-05-21T11:26:56.344Z,37536
2017-05-21T11:27:56.339Z,41376
2017-05-21T11:28:56.370Z,40224
2017-05-21T11:29:56.456Z,107104
2017-05-21T11:30:56.347Z,55488
2017-05-21T11:31:56.337Z,83648
2017-05-21T11:32:56.339Z,77408
2017-05-21T11:33:56.347Z,35328
2017-05-21T11:34:56.338Z,34656
2017-05-21T11:35:56.352Z,39232
2017-05-21T11:36:56.347Z,88736
2017-05-21T11:37:56.349Z,117696
2017-05-21T11:38:56.375Z,113536
2017-05-21T11:39:56.346Z,151488
2017-05-21T11:40:56.355Z,149984
2017-05-21T11:41:56.406Z,147648
2017-05-21T11:42:56.331Z,145408
2017-05-21T11:43:56.459Z,151424
2017-05-21T11:44:56.357Z,153600
2017-05-21T11:45:56.355Z,156704
2017-05-21T11:46:56.363Z,129792
2017-05-21T11:47:56.357Z,151488
2017-05-21T11:48:56.360Z,154048
2017-05-21T11:49:56.356Z,94784
2017-05-21T11:50:56.320Z,140224
2017-05-21T11:51:56.361Z,31456
2017-05-21T11:52:56.317Z,38752
2017-05-21T11:53:56.361Z,31232
2017-05-21T11:54:56.359Z,28288
2017-05-21T11:55:56.359Z,30496
2017-05-21T11:56:56.359Z,46112
2017-05-21T11:57:56.464Z,34048
2017-05-21T11:58:56.364Z,39488
2017-05-21T11:59:56.358Z,147200
2017-05-21T12:00:56.364Z,157888
2017-05-21T12:01:56.369Z,156768
2017-05-21T12:02:56.326Z,155424
2017-05-21T12:03:56.352Z,154592
2017-05-21T12:04:56.369Z,152992
2017-05-21T12:05:56.366Z,150464
2017-05-21T12:06:56.363Z,150304
2017-05-21T12:07:56.383Z,135968
2017-05-21T12:08:56.365Z,152608
2017-05-21T12:09:56.361Z,43104
2017-05-21T12:10:56.371Z,30912
2017-05-21T12:11:56.344Z,35392
2017-05-21T12:12:56.373Z,33184
2017-05-21T12:13:56.374Z,32704
2017-05-21T12:14:56.366Z,34944
2017-05-21T12:15:56.477Z,38208
2017-05-21T12:16:56.391Z,47328
2017-05-21T12:17:56.364Z,128576
2017-05-21T12:18:56.349Z,150176
2017-05-21T12:19:56.372Z,148256
2017-05-21T12:20:56.334Z,146304
2017-05-21T12:21:56.389Z,144704
2017-05-21T12:22:56.395Z,144000
2017-05-21T12:23:56.398Z,142656
2017-05-21T12:24:56.383Z,142208
2017-05-21T12:25:56.341Z,142272
2017-05-21T12:26:56.377Z,141952
2017-05-21T12:27:56.340Z,143264
2017-05-21T12:28:56.373Z,141888
2017-05-21T12:29:56.398Z,141408
2017-05-21T12:30:56.375Z,140384
2017-05-21T12:31:56.370Z,139936
2017-05-21T12:32:56.345Z,140416
2017-05-21T12:33:56.375Z,141728
2017-05-21T12:34:56.379Z,143328
2017-05-21T12:35:56.344Z,146144
2017-05-21T12:36:56.389Z,145792
2017-05-21T12:37:56.385Z,139904
2017-05-21T12:38:56.357Z,47520
2017-05-21T12:39:56.383Z,65120
2017-05-21T12:40:56.375Z,36832
2017-05-21T12:41:56.438Z,39200
2017-05-21T12:42:56.386Z,38784
2017-05-21T12:43:56.362Z,38400
2017-05-21T12:44:56.343Z,40768
2017-05-21T12:45:56.395Z,51072
2017-05-21T12:46:56.404Z,80288
2017-05-21T12:47:56.395Z,152384
2017-05-21T12:48:56.404Z,150848
2017-05-21T12:49:56.392Z,130016
2017-05-21T12:50:56.407Z,91904
2017-05-21T12:51:56.363Z,131040
2017-05-21T12:52:56.379Z,147968
2017-05-21T12:53:56.367Z,150496
2017-05-21T12:54:56.368Z,150176
2017-05-21T12:55:56.381Z,150464
2017-05-21T12:56:56.370Z,149504
2017-05-21T12:57:56.367Z,150208
2017-05-21T12:58:56.390Z,149984
2017-05-21T12:59:56.392Z,145632
2017-05-21T13:00:56.392Z,142528
2017-05-21T13:01:56.397Z,138560
2017-05-21T13:02:56.401Z,136512
2017-05-21T13:03:56.387Z,137152
2017-05-21T13:04:56.363Z,137952
2017-05-21T13:05:56.474Z,137344
2017-05-21T13:06:56.389Z,135968
2017-05-21T13:07:56.392Z,134560
2017-05-21T13:08:56.500Z,133792
2017-05-21T13:09:56.401Z,134976
2017-05-21T13:10:56.402Z,137696
2017-05-21T13:11:56.363Z,140160
2017-05-21T13:12:56.422Z,140992